Time;durP1;ratioP1;P1;durP2;ratioP2;P2;SDS_P1;SDS_P2;PMS_P1;PMS_P2;Temp;Humidity;BMP_temperature;BMP_pressure;BME280_temperature;BME280_humidity;BME280_pressure;Samples;Min_cycle;Max_cycle;Signal;HPM_P1;HPM_P2
2023/08/29 00:00:09;;;;;;;16.20;14.90;;;;;;;22.61;100.00;98397.36;109648;1250;59000;-70
2023/08/29 00:02:41;;;;;;;15.70;14.50;;;;;;;22.60;100.00;98398.17;109673;1250;61733;-72
2023/08/29 00:05:09;;;;;;;14.80;13.60;;;;;;;22.58;100.00;98396.11;109659;1250;59214;-69
2023/08/29 00:07:36;;;;;;;15.50;14.20;;;;;;;22.57;100.00;98395.52;109613;1250;73135;-70
2023/08/29 00:10:03;;;;;;;15.80;14.70;;;;;;;22.54;100.00;98400.45;109732;1249;68735;-71
2023/08/29 00:12:32;;;;;;;16.40;14.90;;;;;;;22.53;100.00;98396.66;109638;1250;71207;-69
2023/08/29 00:14:59;;;;;;;15.60;14.30;;;;;;;22.53;100.00;98398.02;109688;1250;61749;-69
2023/08/29 00:17:26;;;;;;;16.10;14.80;;;;;;;22.52;100.00;98402.85;109660;1250;60164;-72
2023/08/29 00:19:54;;;;;;;15.50;14.30;;;;;;;22.51;100.00;98400.95;109677;1250;74358;-69
2023/08/29 00:22:21;;;;;;;15.80;14.60;;;;;;;22.49;100.00;98407.29;109670;1249;66481;-69
2023/08/29 00:24:48;;;;;;;15.60;14.30;;;;;;;22.48;100.00;98406.80;109662;1250;71158;-69
2023/08/29 00:27:15;;;;;;;15.20;14.00;;;;;;;22.47;100.00;98410.00;109642;1250;60440;-70
2023/08/29 00:29:42;;;;;;;16.20;15.00;;;;;;;22.46;100.00;98408.86;109624;1250;60033;-71
2023/08/29 00:32:10;;;;;;;16.20;15.00;;;;;;;22.45;100.00;98415.30;109668;1250;74498;-69
2023/08/29 00:34:37;;;;;;;16.30;14.80;;;;;;;22.44;100.00;98411.36;109696;1250;67664;-70
2023/08/29 00:37:04;;;;;;;15.50;14.20;;;;;;;22.43;100.00;98407.67;109630;1250;71467;-72
2023/08/29 00:39:30;;;;;;;15.90;14.60;;;;;;;22.43;100.00;98410.11;109635;1250;61196;-71
2023/08/29 00:41:57;;;;;;;15.40;14.30;;;;;;;22.42;100.00;98412.34;109614;1250;58935;-70
2023/08/29 00:44:24;;;;;;;16.70;15.30;;;;;;;22.41;100.00;98410.70;109649;1250;74914;-70
2023/08/29 00:46:50;;;;;;;14.90;13.70;;;;;;;22.41;100.00;98410.17;109658;1250;67820;-69
2023/08/29 00:49:19;;;;;;;15.40;14.20;;;;;;;22.39;100.00;98407.74;109530;1250;71219;-71
2023/08/29 00:51:45;;;;;;;16.20;14.80;;;;;;;22.40;100.00;98407.63;109643;1250;62012;-71
2023/08/29 00:54:13;;;;;;;15.20;13.80;;;;;;;22.41;100.00;98402.80;109446;1250;59014;-70
2023/08/29 00:56:40;;;;;;;16.60;15.40;;;;;;;22.41;100.00;98404.15;109553;1250;75216;-70
2023/08/29 00:59:06;;;;;;;15.70;14.40;;;;;;;22.40;100.00;98400.36;109492;1250;68003;-70
2023/08/29 01:01:33;;;;;;;15.70;14.60;;;;;;;22.38;100.00;98397.65;109601;1250;58914;-68
2023/08/29 01:04:00;;;;;;;15.90;14.70;;;;;;;22.36;100.00;98394.95;109662;1250;61753;-71
2023/08/29 01:06:26;;;;;;;16.00;14.70;;;;;;;22.34;100.00;98390.98;109675;1250;60193;-71
2023/08/29 01:08:53;;;;;;;17.10;15.60;;;;;;;22.32;100.00;98390.77;109653;1250;73390;-70
2023/08/29 01:11:44;;;;;;;15.50;14.30;;;;;;;22.30;100.00;98384.27;109620;1250;66938;-71
2023/08/29 01:14:20;;;;;;;15.20;14.00;;;;;;;22.28;100.00;98385.25;109646;1250;71525;-67
2023/08/29 01:17:29;;;;;;;16.30;14.70;;;;;;;22.26;100.00;98379.30;109660;1250;60527;-67
2023/08/29 01:19:56;;;;;;;15.90;14.70;;;;;;;22.23;100.00;98381.90;109637;1250;60114;-69
2023/08/29 01:22:52;;;;;;;16.10;14.80;;;;;;;22.24;100.00;98377.14;109645;1250;74653;-68
2023/08/29 01:26:00;;;;;;;16.30;15.10;;;;;;;22.23;100.00;98379.52;109639;1250;67736;-69
2023/08/29 01:28:27;;;;;;;20.20;15.60;;;;;;;22.23;100.00;98377.56;109616;1251;72589;-68
2023/08/29 01:30:53;;;;;;;15.50;14.40;;;;;;;22.23;100.00;98374.48;109644;1250;60528;-70
2023/08/29 01:33:20;;;;;;;16.90;15.60;;;;;;;22.23;100.00;98373.87;109494;1250;59056;-71
2023/08/29 01:35:46;;;;;;;16.80;15.20;;;;;;;22.23;100.00;98370.03;109618;1250;74958;-69
2023/08/29 01:38:17;;;;;;;16.50;15.30;;;;;;;22.24;100.00;98364.66;109652;1250;66478;-71
2023/08/29 01:40:44;;;;;;;16.10;14.40;;;;;;;22.27;100.00;98365.20;109481;1251;71044;-70
2023/08/29 01:43:10;;;;;;;17.50;15.30;;;;;;;22.28;100.00;98365.31;109600;1250;60743;-69
2023/08/29 01:45:37;;;;;;;17.00;15.30;;;;;;;22.29;100.00;98362.55;109685;1250;60281;-70
2023/08/29 01:48:04;;;;;;;15.90;14.70;;;;;;;22.30;100.00;98356.58;109539;1251;73682;-69
2023/08/29 01:50:31;;;;;;;15.20;14.00;;;;;;;22.33;100.00;98355.17;109712;1250;67918;-68
2023/08/29 01:52:59;;;;;;;15.20;14.10;;;;;;;22.35;100.00;98353.48;109638;1250;71254;-69
2023/08/29 01:55:26;;;;;;;17.80;16.10;;;;;;;22.37;100.00;98352.90;109593;1250;61290;-70
2023/08/29 01:57:52;;;;;;;16.00;14.60;;;;;;;22.39;100.00;98348.39;109551;1250;60644;-68
2023/08/29 02:00:19;;;;;;;16.60;15.00;;;;;;;22.41;100.00;98344.77;109533;1250;73096;-70
2023/08/29 02:02:48;;;;;;;16.00;14.40;;;;;;;22.43;100.00;98346.11;109526;1250;67878;-70
2023/08/29 02:05:14;;;;;;;15.40;14.10;;;;;;;22.46;100.00;98345.23;109536;1250;71839;-69
2023/08/29 02:07:41;;;;;;;15.50;14.20;;;;;;;22.50;100.00;98340.84;109651;1250;58949;-68
2023/08/29 02:10:08;;;;;;;15.40;14.10;;;;;;;22.55;100.00;98338.56;109652;1250;58823;-70
2023/08/29 02:12:35;;;;;;;15.10;13.90;;;;;;;22.58;100.00;98332.64;109672;1250;75147;-69
2023/08/29 02:15:03;;;;;;;14.70;13.60;;;;;;;22.61;100.00;98326.99;109603;1250;67556;-69
2023/08/29 02:17:29;;;;;;;15.20;14.00;;;;;;;22.63;100.00;98323.13;109531;1251;72640;-70
2023/08/29 02:19:56;;;;;;;15.70;14.30;;;;;;;22.66;100.00;98316.88;109534;1250;61653;-69
2023/08/29 02:22:22;;;;;;;15.70;14.50;;;;;;;22.67;100.00;98312.65;109691;1250;60017;-69
2023/08/29 02:24:49;;;;;;;14.70;13.60;;;;;;;22.69;100.00;98313.17;109560;1250;58954;-69
2023/08/29 02:27:15;;;;;;;15.50;14.10;;;;;;;22.71;100.00;98307.75;109760;1249;58984;-70
2023/08/29 02:29:42;;;;;;;16.70;13.80;;;;;;;22.73;100.00;98306.01;109622;1250;71185;-71
2023/08/29 02:32:08;;;;;;;14.40;13.20;;;;;;;22.74;100.00;98305.14;109625;1250;58923;-71
2023/08/29 02:34:35;;;;;;;16.20;13.90;;;;;;;22.74;100.00;98299.83;109557;1250;59027;-71
2023/08/29 02:37:03;;;;;;;14.20;13.00;;;;;;;22.74;100.00;98300.63;109639;1250;73258;-69
2023/08/29 02:39:30;;;;;;;15.00;13.90;;;;;;;22.74;100.00;98300.74;109696;1250;66648;-69
2023/08/29 02:41:56;;;;;;;13.70;12.60;;;;;;;22.74;100.00;98303.02;109696;1250;72523;-70
2023/08/29 02:44:26;;;;;;;14.10;13.10;;;;;;;22.75;100.00;98305.73;109463;1251;60503;-69
2023/08/29 02:46:52;;;;;;;14.30;13.20;;;;;;;22.77;100.00;98306.27;109660;1250;60032;-67
2023/08/29 02:49:19;;;;;;;15.20;13.90;;;;;;;22.79;100.00;98306.74;109634;1251;75220;-70
2023/08/29 02:51:46;;;;;;;15.60;14.20;;;;;;;22.81;100.00;98304.48;109673;1251;67807;-70
2023/08/29 02:54:13;;;;;;;15.20;13.70;;;;;;;22.82;100.00;98303.10;109533;1250;72470;-69
2023/08/29 02:56:39;;;;;;;15.40;13.90;;;;;;;22.82;100.00;98298.21;109471;1250;61653;-71
2023/08/29 02:59:06;;;;;;;14.90;13.40;;;;;;;22.81;100.00;98298.88;109659;1250;60213;-69
2023/08/29 03:01:33;;;;;;;15.30;14.20;;;;;;;22.78;100.00;98298.23;109615;1250;58983;-69
2023/08/29 03:03:59;;;;;;;15.20;13.70;;;;;;;22.74;100.00;98295.38;109622;1251;68272;-68
2023/08/29 03:06:26;;;;;;;14.70;13.50;;;;;;;22.69;100.00;98293.02;109615;1250;72515;-68
2023/08/29 03:08:53;;;;;;;14.60;13.40;;;;;;;22.65;100.00;98295.90;109444;1250;60928;-69
2023/08/29 03:11:19;;;;;;;14.80;13.40;;;;;;;22.61;100.00;98294.52;109597;1251;60177;-70
2023/08/29 03:13:46;;;;;;;14.80;13.70;;;;;;;22.56;100.00;98292.74;109700;1250;74916;-67
2023/08/29 03:16:14;;;;;;;15.10;13.80;;;;;;;22.53;100.00;98287.55;109607;1250;66502;-68
2023/08/29 03:18:44;;;;;;;15.30;14.00;;;;;;;22.50;100.00;98283.45;109534;1250;71274;-70
2023/08/29 03:21:11;;;;;;;14.50;13.30;;;;;;;22.46;100.00;98282.10;109500;1251;61112;-69
2023/08/29 03:23:38;;;;;;;15.20;13.80;;;;;;;22.43;100.00;98281.99;109616;1250;59790;-69
2023/08/29 03:26:08;;;;;;;16.00;14.60;;;;;;;22.39;100.00;98285.26;109686;1250;73591;-70
2023/08/29 03:28:37;;;;;;;17.20;15.60;;;;;;;22.37;100.00;98289.01;109641;1250;66923;-69
2023/08/29 03:31:11;;;;;;;14.80;13.70;;;;;;;22.36;100.00;98288.69;109633;1250;72435;-68
2023/08/29 03:33:39;;;;;;;15.60;14.10;;;;;;;22.37;100.00;98290.21;109651;1250;60595;-69
2023/08/29 03:36:06;;;;;;;15.10;13.80;;;;;;;22.38;100.00;98299.68;109585;1250;60117;-71
2023/08/29 03:38:34;;;;;;;14.80;13.50;;;;;;;22.39;100.00;98291.55;109661;1250;73030;-71
2023/08/29 03:41:01;;;;;;;15.30;14.00;;;;;;;22.40;100.00;98280.98;109646;1250;66569;-68
2023/08/29 03:43:28;;;;;;;14.50;13.20;;;;;;;22.37;100.00;98288.84;109687;1250;72585;-70
2023/08/29 03:46:02;;;;;;;15.50;13.40;;;;;;;22.35;100.00;98284.46;109528;1250;61791;-69
2023/08/29 03:48:30;;;;;;;15.70;14.40;;;;;;;22.31;100.00;98280.85;109587;1251;60106;-70
2023/08/29 03:51:06;;;;;;;15.30;13.70;;;;;;;22.27;100.00;98278.02;109703;1250;74691;-70
2023/08/29 03:53:36;;;;;;;15.10;13.50;;;;;;;22.25;100.00;98273.81;109673;1250;67694;-70
2023/08/29 03:56:03;;;;;;;14.20;13.10;;;;;;;22.23;100.00;98271.17;109548;1250;71242;-69
2023/08/29 03:58:30;;;;;;;14.30;12.80;;;;;;;22.24;100.00;98268.45;109530;1250;60546;-69
2023/08/29 04:00:58;;;;;;;15.30;13.80;;;;;;;22.28;100.00;98260.04;109468;1250;58876;-69
2023/08/29 04:03:24;;;;;;;16.00;14.00;;;;;;;22.34;100.00;98257.65;109567;1250;74623;-69
2023/08/29 04:05:51;;;;;;;15.30;13.90;;;;;;;22.42;100.00;98257.23;109678;1250;66610;-70
2023/08/29 04:08:18;;;;;;;14.00;12.60;;;;;;;22.54;100.00;98248.70;109512;1253;72692;-72
2023/08/29 04:10:45;;;;;;;14.60;13.30;;;;;;;22.68;100.00;98241.61;109655;1250;60735;-70
2023/08/29 04:13:12;;;;;;;14.80;13.40;;;;;;;22.85;100.00;98241.21;109672;1250;60125;-71
2023/08/29 04:15:38;;;;;;;14.10;12.90;;;;;;;23.03;100.00;98240.48;109521;1250;74358;-70
2023/08/29 04:18:05;;;;;;;14.30;13.30;;;;;;;23.22;100.00;98234.16;109625;1250;58904;-72
2023/08/29 04:20:32;;;;;;;13.70;12.40;;;;;;;23.42;100.00;98231.56;109682;1250;72404;-69
2023/08/29 04:23:01;;;;;;;15.20;13.10;;;;;;;23.57;100.00;98227.70;109682;1250;61747;-71
2023/08/29 04:25:28;;;;;;;14.30;13.10;;;;;;;23.71;100.00;98225.30;109663;1250;60098;-70
2023/08/29 04:27:55;;;;;;;14.60;13.30;;;;;;;23.88;100.00;98227.37;109634;1250;74630;-72
2023/08/29 04:30:21;;;;;;;14.20;13.00;;;;;;;24.06;100.00;98226.34;109707;1249;67076;-70
2023/08/29 04:32:48;;;;;;;12.70;11.80;;;;;;;24.24;100.00;98222.20;109473;1250;71607;-70
2023/08/29 04:35:15;;;;;;;13.60;12.30;;;;;;;24.41;100.00;98216.62;109528;1250;60527;-71
2023/08/29 04:37:51;;;;;;;13.20;11.90;;;;;;;24.64;100.00;98213.52;109648;1254;58967;-70
2023/08/29 04:40:18;;;;;;;14.70;13.20;;;;;;;24.84;100.00;98205.55;109575;1250;74608;-71
2023/08/29 04:42:45;;;;;;;13.50;12.30;;;;;;;25.03;100.00;98204.64;109667;1250;67746;-71
2023/08/29 04:45:12;;;;;;;16.30;12.90;;;;;;;25.27;100.00;98201.61;109575;1250;71820;-70
2023/08/29 04:47:39;;;;;;;14.40;13.10;;;;;;;25.50;100.00;98203.17;109644;1250;60512;-71
2023/08/29 04:50:07;;;;;;;16.50;12.50;;;;;;;25.72;100.00;98200.52;109562;1250;60106;-71
2023/08/29 04:52:34;;;;;;;14.10;12.20;;;;;;;25.97;100.00;98197.55;109639;1250;74623;-69
2023/08/29 04:55:00;;;;;;;12.70;11.50;;;;;;;26.25;100.00;98192.05;109651;1250;67882;-71
2023/08/29 04:57:27;;;;;;;13.80;12.50;;;;;;;26.57;100.00;98185.20;109548;1250;71510;-71
2023/08/29 04:59:54;;;;;;;14.50;13.00;;;;;;;26.80;100.00;98183.67;109650;1250;60524;-69
2023/08/29 05:02:21;;;;;;;13.30;12.20;;;;;;;26.92;100.00;98181.02;109629;1249;59373;-68
2023/08/29 05:04:48;;;;;;;13.60;12.20;;;;;;;27.07;100.00;98179.55;109655;1251;74433;-70
2023/08/29 05:07:15;;;;;;;13.10;11.80;;;;;;;27.24;100.00;98179.09;109505;1250;67672;-69
2023/08/29 05:09:41;;;;;;;13.30;12.10;;;;;;;27.35;100.00;98177.05;109720;1250;73405;-72
2023/08/29 05:12:10;;;;;;;13.60;12.00;;;;;;;27.43;100.00;98176.56;109633;1250;60181;-69
2023/08/29 05:14:38;;;;;;;14.40;13.10;;;;;;;27.51;100.00;98176.42;109625;1250;59042;-71
2023/08/29 05:17:05;;;;;;;13.10;12.00;;;;;;;27.65;100.00;98173.94;109560;1250;180574;-71
2023/08/29 05:19:33;;;;;;;13.10;11.90;;;;;;;27.83;100.00;98174.89;109568;1250;67657;-70
2023/08/29 05:21:59;;;;;;;12.20;11.20;;;;;;;28.04;100.00;98171.18;109513;1250;72525;-71
2023/08/29 05:24:26;;;;;;;13.50;12.10;;;;;;;28.24;100.00;98168.58;109511;1250;59111;-72
2023/08/29 05:26:53;;;;;;;12.80;11.50;;;;;;;28.42;100.00;98167.27;109678;1250;60322;-72
2023/08/29 05:29:20;;;;;;;13.50;11.60;;;;;;;28.59;100.00;98165.03;109648;1250;74375;-70
2023/08/29 05:31:47;;;;;;;13.00;11.70;;;;;;;28.68;100.00;98161.66;109704;1250;67676;-69
2023/08/29 05:34:13;;;;;;;12.90;11.50;;;;;;;28.74;100.00;98161.92;109660;1250;72747;-70
2023/08/29 05:36:40;;;;;;;13.20;11.20;;;;;;;28.72;100.00;98161.34;109631;1254;60255;-69
2023/08/29 05:39:07;;;;;;;11.50;10.40;;;;;;;28.71;100.00;98167.09;109727;1250;60112;-71
2023/08/29 05:41:34;;;;;;;12.70;11.50;;;;;;;28.76;100.00;98165.05;109720;1250;74177;-68
2023/08/29 05:44:00;;;;;;;12.90;11.70;;;;;;;28.85;100.00;98161.00;109679;1250;66756;-69
2023/08/29 05:46:27;;;;;;;13.90;12.60;;;;;;;28.83;100.00;98160.38;109666;1250;72519;-67
2023/08/29 05:48:54;;;;;;;12.10;11.00;;;;;;;28.79;100.00;98157.94;109697;1250;59777;-68
2023/08/29 05:51:21;;;;;;;13.10;12.00;;;;;;;28.88;100.00;98157.73;109521;1251;59179;-68
2023/08/29 05:53:47;;;;;;;13.00;11.80;;;;;;;28.98;100.00;98154.98;109652;1250;59597;-71
2023/08/29 05:56:14;;;;;;;14.30;11.90;;;;;;;29.03;100.00;98156.06;109750;1250;67617;-70
2023/08/29 05:58:41;;;;;;;14.60;11.80;;;;;;;29.04;100.00;98153.45;109698;1250;72465;-72
2023/08/29 06:01:08;;;;;;;12.50;11.40;;;;;;;29.07;100.00;98150.17;109681;1250;60117;-70
2023/08/29 06:03:36;;;;;;;11.60;10.50;;;;;;;29.24;100.00;98148.20;109593;1250;61828;-68
2023/08/29 06:06:03;;;;;;;13.60;10.60;;;;;;;29.46;100.00;98150.84;109682;1250;74441;-71
2023/08/29 06:08:33;;;;;;;11.60;10.30;;;;;;;29.72;100.00;98151.13;109572;1250;66728;-73
2023/08/29 06:11:00;;;;;;;10.80;9.70;;;;;;;29.98;100.00;98155.94;109634;1250;72518;-71
2023/08/29 06:13:27;;;;;;;10.30;9.30;;;;;;;30.25;100.00;98147.49;109730;1250;60327;-73
2023/08/29 06:15:53;;;;;;;11.50;10.30;;;;;;;30.59;100.00;98152.80;109714;1250;60293;-70
2023/08/29 06:18:20;;;;;;;15.40;10.40;;;;;;;30.88;100.00;98153.65;109675;1250;74457;-71
2023/08/29 06:20:47;;;;;;;9.90;9.00;;;;;;;31.11;98.31;98150.13;109732;1250;67665;-68
2023/08/29 06:23:13;;;;;;;15.10;9.80;;;;;;;31.21;97.24;98151.46;109668;1250;72468;-67
2023/08/29 06:25:41;;;;;;;10.70;9.10;;;;;;;31.32;95.29;98153.91;109575;1251;59657;-66
2023/08/29 06:28:07;;;;;;;14.50;10.10;;;;;;;31.44;94.70;98150.04;109670;1250;59009;-65
2023/08/29 06:30:35;;;;;;;11.40;8.90;;;;;;;31.59;94.07;98150.45;109690;1250;75020;-70
2023/08/29 06:33:04;;;;;;;11.80;9.50;;;;;;;31.82;91.82;98151.54;109607;1250;68032;-70
2023/08/29 06:35:30;;;;;;;13.20;9.30;;;;;;;31.87;86.89;98154.45;109640;1250;72749;-69
2023/08/29 06:37:57;;;;;;;11.50;9.20;;;;;;;31.87;87.17;98155.41;109455;1253;59003;-69
2023/08/29 06:40:24;;;;;;;13.60;10.00;;;;;;;31.96;86.35;98158.16;109692;1250;60365;-75
2023/08/29 06:42:50;;;;;;;10.80;8.70;;;;;;;32.01;85.08;98156.09;109642;1250;74572;-73
2023/08/29 06:45:17;;;;;;;10.50;9.10;;;;;;;32.05;83.75;98163.08;109647;1250;66616;-73
2023/08/29 06:47:45;;;;;;;9.40;8.50;;;;;;;32.11;84.75;98159.51;109656;1250;71442;-75
2023/08/29 06:50:12;;;;;;;11.90;10.00;;;;;;;32.33;84.97;98162.48;109675;1250;60196;-71
2023/08/29 06:52:39;;;;;;;12.40;10.20;;;;;;;32.57;84.30;98161.95;109733;1250;59183;-69
2023/08/29 06:55:06;;;;;;;13.10;8.80;;;;;;;33.13;83.61;98161.33;109669;1250;74812;-68
2023/08/29 06:57:32;;;;;;;11.00;9.20;;;;;;;34.05;77.51;98165.66;109719;1250;67709;-66
2023/08/29 06:59:59;;;;;;;13.60;9.30;;;;;;;35.21;71.20;98157.23;109691;1250;73117;-71
2023/08/29 07:02:25;;;;;;;11.60;8.60;;;;;;;36.35;63.54;98157.52;109652;1250;58935;-68
2023/08/29 07:04:52;;;;;;;14.90;10.50;;;;;;;37.36;58.00;98162.52;109702;1250;58940;-69
2023/08/29 07:07:19;;;;;;;13.10;10.10;;;;;;;38.17;51.88;98159.16;109650;1250;73290;-70
2023/08/29 07:09:46;;;;;;;10.40;9.40;;;;;;;38.48;48.79;98159.52;109676;1250;67809;-67
2023/08/29 07:12:13;;;;;;;12.70;9.30;;;;;;;38.66;46.96;98155.60;109724;1250;72473;-69
2023/08/29 07:14:39;;;;;;;11.30;10.10;;;;;;;38.68;46.59;98153.80;109613;1250;59033;-68
2023/08/29 07:17:06;;;;;;;15.50;11.10;;;;;;;38.61;47.49;98151.05;109660;1250;60100;-68
2023/08/29 07:19:38;;;;;;;12.90;9.90;;;;;;;38.68;45.96;98152.91;109716;1250;74779;-72
2023/08/29 07:22:05;;;;;;;12.30;10.50;;;;;;;38.62;43.70;98155.73;109670;1250;66778;-70
2023/08/29 07:24:49;;;;;;;13.60;9.30;;;;;;;38.49;44.33;98156.83;109534;1250;72421;-72
2023/08/29 07:27:15;;;;;;;15.30;10.20;;;;;;;38.84;44.69;98159.95;109620;1250;60062;-69
2023/08/29 07:29:43;;;;;;;12.20;9.10;;;;;;;39.48;43.33;98156.48;109540;1250;60171;-71
2023/08/29 07:32:10;;;;;;;13.60;9.50;;;;;;;39.76;41.37;98165.41;109605;1250;74604;-76
2023/08/29 07:34:39;;;;;;;9.60;8.80;;;;;;;39.81;40.05;98165.98;109615;1250;66663;-72
2023/08/29 07:37:06;;;;;;;12.70;9.30;;;;;;;39.90;39.95;98170.04;109629;1250;71421;-76
2023/08/29 07:39:32;;;;;;;9.30;8.50;;;;;;;40.15;38.51;98168.30;109653;1254;60056;-72
2023/08/29 07:42:00;;;;;;;12.90;8.60;;;;;;;40.30;38.19;98168.54;109679;1250;60133;-73
2023/08/29 07:44:26;;;;;;;18.60;8.90;;;;;;;40.73;37.62;98164.62;109631;1250;73863;-73
2023/08/29 07:46:53;;;;;;;12.10;8.40;;;;;;;40.87;36.49;98170.44;109671;1250;66942;-73
2023/08/29 07:49:39;;;;;;;10.00;7.80;;;;;;;40.93;35.92;98175.04;109713;1250;71379;-72
2023/08/29 07:52:06;;;;;;;10.30;7.80;;;;;;;41.15;35.08;98173.80;109662;1250;59467;-66
2023/08/29 07:54:33;;;;;;;9.80;8.10;;;;;;;41.10;35.13;98173.65;109711;1250;60294;-74
2023/08/29 07:57:00;;;;;;;9.80;7.80;;;;;;;41.38;35.18;98176.61;109725;1250;73338;-71
2023/08/29 07:59:27;;;;;;;9.00;8.10;;;;;;;41.68;34.52;98172.90;109690;1250;67701;-70
2023/08/29 08:01:55;;;;;;;9.30;7.20;;;;;;;41.84;33.26;98174.01;109598;1250;73314;-73
2023/08/29 08:04:21;;;;;;;12.00;7.70;;;;;;;41.82;32.21;98172.17;109651;1252;61003;-67
2023/08/29 08:06:51;;;;;;;10.00;7.90;;;;;;;41.84;32.08;98167.78;109642;1250;58882;-71
2023/08/29 08:09:18;;;;;;;9.20;7.20;;;;;;;41.81;31.97;98170.92;109681;1250;73476;-68
2023/08/29 08:11:44;;;;;;;9.60;6.50;;;;;;;41.69;31.95;98170.56;109735;1250;67606;-75
2023/08/29 08:14:12;;;;;;;7.10;6.50;;;;;;;41.65;31.92;98168.27;109710;1250;71296;-73
2023/08/29 08:16:39;;;;;;;12.70;7.30;;;;;;;41.38;30.45;98168.22;109645;1250;60118;-68
2023/08/29 08:19:06;;;;;;;9.10;6.90;;;;;;;41.10;31.56;98166.48;109620;1251;59088;-72
2023/08/29 08:21:32;;;;;;;8.00;7.20;;;;;;;41.04;32.24;98163.88;109683;1250;73155;-71
2023/08/29 08:23:59;;;;;;;7.90;6.60;;;;;;;41.15;32.06;98163.59;109700;1250;67660;-71
2023/08/29 08:26:26;;;;;;;10.20;7.20;;;;;;;40.99;32.30;98159.98;109617;1251;72870;-70
2023/08/29 08:28:54;;;;;;;9.50;6.90;;;;;;;40.83;31.69;98156.48;109701;1250;60222;-73
2023/08/29 08:31:21;;;;;;;20.50;7.70;;;;;;;40.86;32.58;98151.55;109570;1250;59520;-73
2023/08/29 08:33:48;;;;;;;9.00;7.30;;;;;;;40.88;32.15;98155.69;109699;1249;73813;-71
2023/08/29 08:36:14;;;;;;;8.30;6.40;;;;;;;40.76;31.44;98157.61;109687;1250;67686;-71
2023/08/29 08:38:41;;;;;;;8.60;6.20;;;;;;;40.66;31.71;98154.52;109651;1251;72407;-73
2023/08/29 08:41:09;;;;;;;10.00;7.00;;;;;;;40.93;31.78;98151.54;109525;1250;60091;-70
2023/08/29 08:43:36;;;;;;;8.80;5.50;;;;;;;41.39;31.70;98153.72;109577;1251;58894;-69
2023/08/29 08:46:03;;;;;;;8.60;5.70;;;;;;;41.84;30.73;98147.28;109576;1250;73470;-68
2023/08/29 08:48:29;;;;;;;7.60;5.30;;;;;;;41.96;29.92;98146.09;109605;1250;67873;-67
2023/08/29 08:50:57;;;;;;;10.20;5.40;;;;;;;41.82;28.75;98145.86;109659;1250;71470;-67
2023/08/29 08:53:23;;;;;;;9.80;5.10;;;;;;;41.45;28.77;98151.22;109430;1250;59502;-67
2023/08/29 08:55:50;;;;;;;8.60;5.30;;;;;;;41.42;28.51;98144.54;109577;1250;60320;-67
2023/08/29 08:58:18;;;;;;;9.20;4.70;;;;;;;41.51;28.25;98147.92;109687;1250;74534;-66
2023/08/29 09:00:44;;;;;;;7.00;4.60;;;;;;;41.62;27.19;98143.01;109701;1250;68014;-68
2023/08/29 09:03:12;;;;;;;9.50;4.80;;;;;;;41.55;27.20;98142.33;109691;1250;59013;-68
2023/08/29 09:05:39;;;;;;;6.30;5.20;;;;;;;41.57;27.94;98140.64;109605;1250;59009;-64
2023/08/29 09:08:06;;;;;;;6.50;4.30;;;;;;;41.75;27.54;98137.92;109658;1250;58871;-68
2023/08/29 09:10:34;;;;;;;6.60;4.40;;;;;;;41.65;27.04;98137.00;109635;1251;74727;-67
2023/08/29 09:13:00;;;;;;;7.80;4.20;;;;;;;41.67;27.06;98137.14;109485;1250;66452;-67
2023/08/29 09:15:27;;;;;;;6.70;4.20;;;;;;;41.61;26.15;98133.19;109645;1250;59003;-68
2023/08/29 09:17:53;;;;;;;6.20;4.00;;;;;;;41.38;26.32;98131.89;109649;1250;60153;-68
2023/08/29 09:20:21;;;;;;;6.80;4.60;;;;;;;41.14;26.25;98124.86;109707;1250;59912;-68
2023/08/29 09:22:48;;;;;;;8.00;4.40;;;;;;;41.04;26.22;98135.11;109733;1252;74611;-72
2023/08/29 09:25:15;;;;;;;7.60;3.80;;;;;;;41.16;26.70;98124.94;109714;1254;66615;-71
2023/08/29 09:27:42;;;;;;;5.20;4.00;;;;;;;41.39;26.20;98128.13;109678;1250;72722;-71
2023/08/29 09:30:10;;;;;;;7.60;4.20;;;;;;;41.48;25.51;98126.81;109677;1250;59177;-69
2023/08/29 09:32:44;;;;;;;7.20;4.10;;;;;;;41.34;24.92;98134.69;109722;1250;60223;-74
2023/08/29 09:35:15;;;;;;;7.80;4.20;;;;;;;40.93;24.89;98126.21;109663;1250;73281;-70
2023/08/29 09:37:52;;;;;;;6.50;3.90;;;;;;;40.73;25.65;98126.23;109697;1250;67958;-69
2023/08/29 09:40:23;;;;;;;5.40;3.50;;;;;;;40.56;26.40;98124.35;109639;1250;72975;-67
2023/08/29 09:42:58;;;;;;;11.00;4.00;;;;;;;40.38;25.92;98127.86;109629;1250;60671;-68
2023/08/29 09:45:25;;;;;;;7.90;4.20;;;;;;;40.22;26.96;98127.79;109698;1251;59102;-69
2023/08/29 09:47:53;;;;;;;8.00;3.50;;;;;;;40.38;27.02;98120.30;109696;1251;74504;-69
2023/08/29 09:50:22;;;;;;;7.10;3.60;;;;;;;40.29;26.41;98128.41;109737;1254;67891;-69
2023/08/29 09:52:49;;;;;;;7.10;4.00;;;;;;;39.96;26.80;98118.45;109679;1251;72558;-72
2023/08/29 09:55:17;;;;;;;8.30;4.00;;;;;;;39.94;27.65;98128.23;109524;1250;60153;-70
2023/08/29 09:57:43;;;;;;;8.90;3.70;;;;;;;40.01;27.64;98117.73;109666;1250;58879;-76
2023/08/29 10:00:12;;;;;;;6.80;3.40;;;;;;;40.25;27.76;98115.77;109701;1251;73778;-70
2023/08/29 10:02:40;;;;;;;10.00;4.40;;;;;;;40.39;27.26;98113.05;109540;1251;67271;-73
2023/08/29 10:05:08;;;;;;;4.40;3.60;;;;;;;40.52;27.60;98114.64;109488;1251;72485;-71
2023/08/29 10:07:43;;;;;;;6.10;3.60;;;;;;;40.66;26.34;98117.17;109573;1250;60047;-70
2023/08/29 10:10:10;;;;;;;3.70;3.30;;;;;;;40.66;25.50;98119.96;109681;1250;59382;-70
2023/08/29 10:12:37;;;;;;;8.40;3.70;;;;;;;40.74;25.97;98117.40;109678;1250;74828;-71
2023/08/29 10:15:04;;;;;;;6.50;3.70;;;;;;;41.02;24.99;98116.55;109487;1250;66754;-72
2023/08/29 10:17:35;;;;;;;10.50;4.00;;;;;;;41.17;24.68;98131.40;109661;1250;72877;-71
2023/08/29 10:20:10;;;;;;;7.40;3.50;;;;;;;41.16;24.13;98117.30;109648;1251;59576;-70
2023/08/29 10:22:37;;;;;;;10.80;4.10;;;;;;;41.17;23.89;98115.61;109671;1250;59583;-70
2023/08/29 10:25:04;;;;;;;8.50;3.80;;;;;;;41.20;23.85;98125.16;109702;1251;73183;-70
2023/08/29 10:27:31;;;;;;;6.90;3.00;;;;;;;41.15;23.69;98113.45;109639;1251;66414;-70
2023/08/29 10:29:58;;;;;;;10.10;3.40;;;;;;;41.02;24.10;98120.45;109679;1250;72895;-71
2023/08/29 10:32:25;;;;;;;8.20;3.40;;;;;;;40.87;24.23;98120.08;109586;1251;58987;-69
2023/08/29 10:34:54;;;;;;;7.90;3.50;;;;;;;40.84;24.29;98129.39;109473;1255;60409;-72
2023/08/29 10:37:20;;;;;;;5.60;3.20;;;;;;;40.86;23.52;98117.30;109579;1250;73801;-70
2023/08/29 10:39:49;;;;;;;11.90;3.70;;;;;;;40.69;23.29;98117.48;109499;1250;66657;-68
2023/08/29 10:42:15;;;;;;;4.20;2.90;;;;;;;40.43;23.54;98123.16;109511;1251;72488;-67
2023/08/29 10:44:42;;;;;;;8.30;3.90;;;;;;;40.28;23.27;98105.11;109500;1250;59201;-69
2023/08/29 10:47:26;;;;;;;12.70;3.70;;;;;;;40.00;23.88;98112.24;109655;1251;59135;-69
2023/08/29 10:49:56;;;;;;;6.20;3.40;;;;;;;39.92;23.85;98118.36;109642;1251;73106;-68
2023/08/29 10:52:22;;;;;;;11.10;3.80;;;;;;;39.79;23.77;98124.38;109686;1250;67737;-67
2023/08/29 10:55:01;;;;;;;8.50;3.90;;;;;;;39.68;24.08;98120.55;109618;1251;72690;-67
2023/08/29 10:57:29;;;;;;;6.60;3.30;;;;;;;39.75;24.37;98111.17;109596;1250;60248;-73
2023/08/29 10:59:56;;;;;;;7.20;3.50;;;;;;;39.71;24.39;98110.30;109640;1251;60122;-69
2023/08/29 11:02:27;;;;;;;7.30;3.60;;;;;;;39.76;24.83;98103.86;109656;1251;74312;-68
2023/08/29 11:05:03;;;;;;;7.60;3.10;;;;;;;39.90;24.82;98100.86;109504;1256;67976;-68
2023/08/29 11:07:30;;;;;;;11.40;3.50;;;;;;;39.95;24.14;98104.35;109432;1251;71445;-68
2023/08/29 11:10:22;;;;;;;8.10;3.60;;;;;;;39.88;24.51;98097.43;109543;1251;59489;-68
2023/08/29 11:13:02;;;;;;;8.30;3.60;;;;;;;39.92;25.01;98098.63;109466;1251;61185;-66